Time;durP1;ratioP1;P1;durP2;ratioP2;P2;SDS_P1;SDS_P2;PMS_P1;PMS_P2;Temp;Humidity;BMP_temperature;BMP_pressure;BME280_temperature;BME280_humidity;BME280_pressure;Samples;Min_cycle;Max_cycle;Signal;HPM_P1;HPM_P2
2022/01/13 00:00:54;;;;;;;101.18;28.60;;;5.00;99.90;;;;;;5027747;28;20073;-89
2022/01/13 00:03:20;;;;;;;80.25;26.13;;;5.00;99.90;;;;;;5022541;28;20071;-89
2022/01/13 00:05:45;;;;;;;84.15;27.67;;;4.90;99.90;;;;;;5020887;28;20037;-89
2022/01/13 00:08:11;;;;;;;84.18;24.38;;;5.20;99.90;;;;;;5005178;28;20071;-89
2022/01/13 00:10:36;;;;;;;82.32;24.98;;;4.70;99.90;;;;;;5041903;28;20042;-88
2022/01/13 00:13:06;;;;;;;68.38;22.67;;;4.90;99.90;;;;;;5019836;28;20385;-88
2022/01/13 00:15:49;;;;;;;68.90;21.42;;;7.00;99.90;;;;;;4999434;28;20092;-89
2022/01/13 00:18:18;;;;;;;50.13;15.98;;;5.00;99.90;;;;;;5021204;28;20077;-89
2022/01/13 00:21:10;;;;;;;46.47;15.05;;;4.90;99.90;;;;;;5017791;28;20125;-89
2022/01/13 00:26:15;;;;;;;;;;;4.90;99.90;;;;;;5022049;28;20549;-89
2022/01/13 00:28:44;;;;;;;45.75;14.63;;;4.90;99.90;;;;;;5020008;28;20312;-89
2022/01/13 00:31:10;;;;;;;57.22;15.38;;;4.80;99.90;;;;;;5022009;28;20038;-90
2022/01/13 00:33:36;;;;;;;50.95;15.32;;;4.90;99.90;;;;;;5007333;28;20041;-84
2022/01/13 00:36:02;;;;;;;43.38;13.68;;;4.80;99.90;;;;;;5019344;28;20128;-89
2022/01/13 00:38:30;;;;;;;37.47;14.45;;;4.90;99.90;;;;;;5021862;28;20056;-86
2022/01/13 00:40:56;;;;;;;37.42;13.50;;;6.90;99.90;;;;;;4998215;28;20072;-88
2022/01/13 00:43:22;;;;;;;33.63;13.73;;;4.90;99.90;;;;;;5002336;28;20069;-87
2022/01/13 00:45:49;;;;;;;49.28;16.67;;;4.90;99.90;;;;;;5022881;28;20103;-88
2022/01/13 00:48:15;;;;;;;29.52;14.00;;;4.80;99.90;;;;;;5023122;28;20482;-87
2022/01/13 00:50:41;;;;;;;44.53;15.70;;;4.70;99.90;;;;;;5017417;28;20448;-88
2022/01/13 00:53:07;;;;;;;35.70;15.52;;;4.40;99.90;;;;;;5000887;28;20068;-89
2022/01/13 00:55:46;;;;;;;36.08;16.23;;;4.80;99.90;;;;;;5020384;28;20042;-89
2022/01/13 00:58:12;;;;;;;40.22;16.80;;;4.70;99.90;;;;;;5015619;28;20418;-89
2022/01/13 01:00:38;;;;;;;46.50;18.10;;;4.50;99.90;;;;;;5018864;28;20056;-89
2022/01/13 01:03:04;;;;;;;47.22;16.88;;;6.50;99.90;;;;;;5007390;28;20038;-89
2022/01/13 01:05:32;;;;;;;47.90;17.73;;;3.80;99.90;;;;;;5019100;28;20132;-89
2022/01/13 01:07:58;;;;;;;52.60;18.52;;;4.60;99.90;;;;;;5030442;28;20056;-88
2022/01/13 01:10:23;;;;;;;43.05;15.93;;;5.40;99.90;;;;;;5017708;28;20041;-89
2022/01/13 01:12:49;;;;;;;39.03;16.48;;;4.60;99.90;;;;;;5042896;28;20489;-89
2022/01/13 01:15:15;;;;;;;45.20;17.33;;;4.70;99.90;;;;;;5022988;28;20037;-89
2022/01/13 01:17:47;;;;;;;46.90;17.08;;;4.60;99.90;;;;;;5018814;28;20061;-90
2022/01/13 01:20:13;;;;;;;48.40;17.23;;;4.60;99.90;;;;;;5039811;28;20085;-88
2022/01/13 01:22:57;;;;;;;40.80;16.88;;;4.80;99.90;;;;;;5041199;28;20123;-86
2022/01/13 01:27:57;;;;;;;44.83;16.42;;;4.60;99.90;;;;;;5021920;28;20053;-88
2022/01/13 01:30:40;;;;;;;57.72;18.20;;;4.70;99.90;;;;;;5030567;28;20092;-88
2022/01/13 01:33:10;;;;;;;50.08;17.30;;;7.20;99.90;;;;;;5042483;28;20052;-88
2022/01/13 01:35:37;;;;;;;62.03;20.45;;;4.70;99.90;;;;;;5002882;28;20049;-88
2022/01/13 01:38:03;;;;;;;50.35;17.77;;;4.60;99.90;;;;;;5020241;28;20501;-87
2022/01/13 01:40:29;;;;;;;47.22;17.80;;;4.60;99.90;;;;;;5023901;28;20122;-89
2022/01/13 01:42:54;;;;;;;52.42;17.65;;;5.40;99.90;;;;;;5019726;28;20390;-88
2022/01/13 01:45:21;;;;;;;66.80;19.48;;;;;;;;;;4980771;28;20091;-89
2022/01/13 01:47:50;;;;;;;47.10;17.90;;;4.60;99.90;;;;;;5022493;28;20041;-87
2022/01/13 01:50:18;;;;;;;54.75;19.08;;;4.60;99.90;;;;;;5027013;28;20076;-86
2022/01/13 01:52:49;;;;;;;54.08;19.27;;;4.50;99.90;;;;;;5025209;28;20041;-89
2022/01/13 01:55:15;;;;;;;59.58;20.90;;;4.40;99.90;;;;;;5019947;28;20045;-87
2022/01/13 01:57:44;;;;;;;49.85;16.98;;;4.30;99.90;;;;;;5000447;28;20128;-89
2022/01/13 02:00:14;;;;;;;48.38;19.42;;;4.40;99.90;;;;;;5037686;28;20405;-89
2022/01/13 02:02:42;;;;;;;60.03;20.27;;;4.50;99.90;;;;;;5001607;28;20060;-88
2022/01/13 02:05:08;;;;;;;56.28;18.88;;;4.40;99.90;;;;;;5038216;28;20029;-89
2022/01/13 02:07:34;;;;;;;57.70;18.05;;;4.50;99.90;;;;;;5016004;28;20095;-87
2022/01/13 02:09:59;;;;;;;51.92;17.27;;;4.40;99.90;;;;;;5039028;28;20042;-88
2022/01/13 02:12:48;;;;;;;66.45;21.40;;;4.50;99.90;;;;;;5020717;28;20068;-88
2022/01/13 02:17:56;;;;;;;49.83;18.52;;;4.40;99.90;;;;;;5042590;28;20111;-89
2022/01/13 02:20:22;;;;;;;57.33;19.65;;;4.50;99.90;;;;;;5024210;28;20100;-88
2022/01/13 02:22:48;;;;;;;47.17;18.60;;;4.50;99.90;;;;;;5015814;28;20555;-88
2022/01/13 02:25:16;;;;;;;50.97;19.23;;;4.50;99.90;;;;;;5038351;28;20038;-86
2022/01/13 02:27:42;;;;;;;61.22;19.58;;;4.50;99.90;;;;;;5032136;28;20088;-85
2022/01/13 02:30:09;;;;;;;52.22;18.38;;;4.00;99.90;;;;;;5018712;28;20053;-88
2022/01/13 02:32:35;;;;;;;43.83;17.77;;;4.60;99.90;;;;;;5025536;28;20409;-87
2022/01/13 02:35:00;;;;;;;46.00;16.55;;;4.40;99.90;;;;;;5021438;28;20046;-88
2022/01/13 02:37:26;;;;;;;49.05;16.60;;;4.40;99.90;;;;;;5020711;28;20038;-88
2022/01/13 02:39:52;;;;;;;60.50;19.05;;;4.40;99.90;;;;;;5019550;28;20045;-89
2022/01/13 02:42:17;;;;;;;46.28;16.70;;;4.50;99.90;;;;;;5028299;28;20564;-84
2022/01/13 02:44:52;;;;;;;39.25;15.95;;;5.70;99.90;;;;;;5034077;28;20096;-89
2022/01/13 02:47:34;;;;;;;50.15;16.80;;;4.40;99.90;;;;;;5021594;28;20505;-87
2022/01/13 02:50:00;;;;;;;55.10;16.83;;;4.50;99.90;;;;;;5012487;28;20120;-88
2022/01/13 02:52:26;;;;;;;55.33;18.00;;;4.40;99.90;;;;;;5018757;28;20504;-87
2022/01/13 02:54:52;;;;;;;56.92;17.70;;;4.40;99.90;;;;;;5042939;28;20050;-88
2022/01/13 02:57:17;;;;;;;64.47;19.63;;;4.20;99.90;;;;;;5022368;28;20363;-81
2022/01/13 02:59:43;;;;;;;59.17;18.35;;;4.30;99.90;;;;;;5000271;28;20544;-88
2022/01/13 03:02:08;;;;;;;49.03;16.70;;;4.30;99.90;;;;;;5045189;28;20057;-89
2022/01/13 03:04:34;;;;;;;42.13;16.90;;;4.50;99.90;;;;;;5018176;28;20121;-88
2022/01/13 03:07:00;;;;;;;55.88;17.77;;;4.30;99.90;;;;;;4999529;28;20042;-87
2022/01/13 03:09:25;;;;;;;55.45;19.40;;;4.30;99.90;;;;;;5005363;28;20048;-89
2022/01/13 03:11:51;;;;;;;48.22;16.13;;;4.50;99.90;;;;;;5006634;28;20038;-88
2022/01/13 03:14:17;;;;;;;69.10;19.83;;;4.40;99.90;;;;;;5024901;28;20038;-86
2022/01/13 03:16:44;;;;;;;58.63;19.83;;;4.50;99.90;;;;;;5018640;28;20084;-89
2022/01/13 03:19:11;;;;;;;54.95;17.33;;;4.50;99.90;;;;;;5004012;28;20083;-89
2022/01/13 03:21:37;;;;;;;66.13;20.50;;;4.50;99.90;;;;;;5037030;28;20111;-88
2022/01/13 03:24:08;;;;;;;49.38;17.63;;;4.40;99.90;;;;;;5010872;28;20037;-88
2022/01/13 03:26:34;;;;;;;69.18;19.60;;;3.50;99.90;;;;;;5022571;28;20061;-88
2022/01/13 03:31:37;;;;;;;72.72;19.33;;;4.50;99.90;;;;;;5024531;28;20065;-89
2022/01/13 03:34:02;;;;;;;64.03;18.55;;;4.50;99.90;;;;;;5037907;28;20042;-88
2022/01/13 03:36:28;;;;;;;68.32;19.75;;;4.50;99.90;;;;;;5022638;28;20049;-88
2022/01/13 03:38:54;;;;;;;73.05;18.50;;;4.50;99.90;;;;;;5016136;28;20072;-85
2022/01/13 03:41:20;;;;;;;89.47;20.33;;;4.40;99.90;;;;;;5021923;28;20042;-88
2022/01/13 03:43:46;;;;;;;77.00;18.77;;;4.50;99.90;;;;;;5035080;28;20038;-89
2022/01/13 03:46:14;;;;;;;63.78;18.90;;;4.60;99.90;;;;;;5047915;28;20048;-87
2022/01/13 03:48:41;;;;;;;98.20;22.35;;;6.00;99.90;;;;;;5004254;28;20147;-89
2022/01/13 03:51:06;;;;;;;92.68;22.42;;;4.60;99.90;;;;;;5038671;28;20044;-88
2022/01/13 03:53:32;;;;;;;75.68;18.67;;;4.50;99.90;;;;;;5042170;28;20034;-89
2022/01/13 03:56:16;;;;;;;98.70;22.75;;;5.50;99.90;;;;;;5025043;28;20553;-89
2022/01/13 03:59:23;;;;;;;82.97;21.10;;;4.60;99.90;;;;;;5023638;28;20091;-89
2022/01/13 04:02:11;;;;;;;83.53;20.75;;;3.10;99.90;;;;;;5023134;28;20033;-87
2022/01/13 04:04:39;;;;;;;88.47;19.80;;;4.60;99.90;;;;;;5020586;28;20529;-90
2022/01/13 04:07:20;;;;;;;83.43;20.40;;;4.60;99.90;;;;;;5027000;28;20056;-88
2022/01/13 04:09:46;;;;;;;84.63;21.63;;;4.70;99.90;;;;;;5013916;28;20056;-89
2022/01/13 04:12:13;;;;;;;67.47;19.40;;;4.60;99.90;;;;;;5018326;28;20132;-89
2022/01/13 04:14:47;;;;;;;82.78;20.08;;;4.70;99.90;;;;;;5020575;28;20038;-89
2022/01/13 04:17:18;;;;;;;72.57;19.75;;;4.50;99.90;;;;;;5023282;28;20401;-88
2022/01/13 04:19:45;;;;;;;89.07;19.63;;;4.70;99.90;;;;;;5041861;28;20125;-83
2022/01/13 04:22:11;;;;;;;83.97;19.48;;;4.60;99.90;;;;;;5021215;28;20125;-89
2022/01/13 04:24:42;;;;;;;78.95;21.38;;;4.70;99.90;;;;;;5015296;28;20867;-88
2022/01/13 04:27:09;;;;;;;108.78;23.73;;;4.60;99.90;;;;;;4998141;28;20128;-87
2022/01/13 04:29:38;;;;;;;83.13;18.85;;;4.70;99.90;;;;;;5020667;28;20107;-88
2022/01/13 04:32:04;;;;;;;64.07;18.80;;;4.70;99.90;;;;;;5025775;28;20042;-84
2022/01/13 04:34:31;;;;;;;100.88;22.15;;;4.70;99.90;;;;;;5007650;28;20037;-82
2022/01/13 04:37:00;;;;;;;86.15;20.30;;;6.10;99.90;;;;;;5003580;28;20042;-83
2022/01/13 04:39:27;;;;;;;96.47;21.95;;;4.80;99.90;;;;;;5001152;28;20387;-85
2022/01/13 04:41:53;;;;;;;99.57;20.33;;;4.70;99.90;;;;;;5019625;28;20060;-87
2022/01/13 04:44:22;;;;;;;120.82;21.77;;;4.70;99.90;;;;;;5019696;28;20044;-86
2022/01/13 04:46:51;;;;;;;90.28;20.65;;;4.60;99.90;;;;;;5020249;28;20042;-86
2022/01/13 04:49:18;;;;;;;67.93;17.65;;;4.70;99.90;;;;;;5014956;28;20045;-85
2022/01/13 04:51:46;;;;;;;108.78;21.85;;;4.60;99.90;;;;;;5026199;28;20067;-86
2022/01/13 04:54:12;;;;;;;100.95;23.17;;;4.70;99.90;;;;;;5021822;28;20042;-87
2022/01/13 04:56:52;;;;;;;79.70;19.02;;;4.70;99.90;;;;;;5009105;28;20061;-87
2022/01/13 04:59:18;;;;;;;90.75;19.05;;;4.70;99.90;;;;;;5026603;28;20034;-84
2022/01/13 05:01:44;;;;;;;86.85;18.42;;;6.30;99.90;;;;;;5028318;28;20046;-82
2022/01/13 05:04:10;;;;;;;94.65;18.38;;;4.60;99.90;;;;;;5016150;28;20092;-89
2022/01/13 05:06:36;;;;;;;84.95;17.90;;;4.70;99.90;;;;;;5020741;28;20046;-85
2022/01/13 05:09:03;;;;;;;84.47;17.83;;;4.80;99.90;;;;;;5040694;28;20052;-84
2022/01/13 05:11:29;;;;;;;110.50;20.83;;;4.70;99.90;;;;;;5025957;28;20061;-85
2022/01/13 05:13:55;;;;;;;102.25;20.02;;;5.60;99.90;;;;;;5023800;28;20042;-88
2022/01/13 05:16:25;;;;;;;88.28;18.92;;;4.80;99.90;;;;;;5010678;28;20120;-87
2022/01/13 05:19:08;;;;;;;113.32;21.80;;;4.60;99.90;;;;;;5010959;28;20065;-88
2022/01/13 05:22:15;;;;;;;86.53;19.30;;;;;;;;;;5024467;28;20053;-90
2022/01/13 05:24:31;;;;;;;116.60;20.67;;;4.80;99.90;;;;;;5026742;28;20489;-89
2022/01/13 05:26:57;;;;;;;113.38;21.73;;;4.70;99.90;;;;;;5025186;28;20038;-89
2022/01/13 05:29:25;;;;;;;78.53;18.73;;;6.40;99.90;;;;;;5012791;28;20072;-88
2022/01/13 05:31:51;;;;;;;71.30;15.98;;;6.90;99.90;;;;;;5028855;28;20073;-87
2022/01/13 05:34:17;;;;;;;112.15;20.95;;;4.80;99.90;;;;;;4661779;28;10000497;-88
2022/01/13 05:36:43;;;;;;;130.43;22.17;;;5.80;99.90;;;;;;5020938;28;20041;-89
2022/01/13 05:39:10;;;;;;;126.47;22.52;;;4.80;99.90;;;;;;5010063;28;20091;-88
2022/01/13 05:41:36;;;;;;;119.63;21.90;;;4.80;99.90;;;;;;5027724;28;20382;-85
2022/01/13 05:44:01;;;;;;;161.13;25.20;;;4.80;99.90;;;;;;5025750;28;20743;-89
2022/01/13 05:46:28;;;;;;;170.38;26.45;;;5.00;99.90;;;;;;5027080;28;20064;-89
2022/01/13 05:48:54;;;;;;;131.65;22.65;;;5.00;99.90;;;;;;5028164;28;20172;-88
2022/01/13 05:51:21;;;;;;;139.45;23.77;;;5.00;99.90;;;;;;5018872;28;20085;-82
2022/01/13 05:53:46;;;;;;;119.50;20.08;;;5.00;99.90;;;;;;5020954;28;20504;-87
2022/01/13 05:56:13;;;;;;;142.35;23.67;;;5.00;99.90;;;;;;5027583;28;20053;-91
2022/01/13 05:58:39;;;;;;;99.88;21.98;;;5.00;99.90;;;;;;5017088;28;20045;-87
2022/01/13 06:01:05;;;;;;;114.07;23.88;;;5.10;99.90;;;;;;5035755;28;20056;-86
2022/01/13 06:03:31;;;;;;;105.90;19.55;;;6.20;99.90;;;;;;5003419;28;20045;-89
2022/01/13 06:05:57;;;;;;;108.28;23.95;;;5.10;99.90;;;;;;5019967;28;20079;-90
2022/01/13 06:08:22;;;;;;;82.22;18.15;;;5.20;99.90;;;;;;5009039;28;20030;-88
2022/01/13 06:10:48;;;;;;;96.28;20.15;;;5.10;99.90;;;;;;5007944;28;20196;-85
2022/01/13 06:13:14;;;;;;;128.90;25.73;;;5.20;99.90;;;;;;5019677;28;20034;-84
2022/01/13 06:15:40;;;;;;;165.73;27.67;;;5.30;99.90;;;;;;5016042;28;20481;-81
2022/01/13 06:18:11;;;;;;;88.90;22.17;;;5.10;99.90;;;;;;5008241;28;20048;-88
2022/01/13 06:20:39;;;;;;;131.05;24.95;;;5.10;99.90;;;;;;5020768;28;20053;-87
2022/01/13 06:23:07;;;;;;;90.15;22.48;;;5.20;99.90;;;;;;5020256;28;20037;-85
2022/01/13 06:25:33;;;;;;;97.35;23.30;;;5.30;99.90;;;;;;5017319;28;20046;-87
2022/01/13 06:27:58;;;;;;;98.03;23.42;;;5.40;99.90;;;;;;5013890;28;20053;-87
2022/01/13 06:30:24;;;;;;;122.93;25.83;;;5.10;99.90;;;;;;5014491;28;20053;-88
2022/01/13 06:32:50;;;;;;;140.65;26.60;;;5.30;99.90;;;;;;5013436;28;20417;-86
2022/01/13 06:35:15;;;;;;;120.22;26.15;;;5.30;99.90;;;;;;5025157;28;20053;-86
2022/01/13 06:37:41;;;;;;;126.53;28.42;;;5.40;99.90;;;;;;5017261;28;20382;-83
2022/01/13 06:40:09;;;;;;;118.13;26.85;;;5.40;99.90;;;;;;5019544;28;20046;-86
2022/01/13 06:42:35;;;;;;;117.03;26.75;;;5.40;99.90;;;;;;5045319;28;20806;-86
2022/01/13 06:45:01;;;;;;;91.72;23.90;;;5.60;99.90;;;;;;5019051;28;20041;-84
2022/01/13 06:47:26;;;;;;;85.72;21.70;;;5.40;99.90;;;;;;5023275;28;20037;-90
2022/01/13 06:49:52;;;;;;;113.43;25.60;;;5.40;99.90;;;;;;5019965;28;20053;-89
2022/01/13 06:52:18;;;;;;;108.28;26.70;;;5.60;99.90;;;;;;5004716;28;20390;-84
2022/01/13 06:54:44;;;;;;;106.03;24.63;;;5.50;99.90;;;;;;5028808;28;20053;-89
2022/01/13 06:57:10;;;;;;;94.18;23.85;;;5.40;99.90;;;;;;5027151;28;20048;-89
2022/01/13 06:59:35;;;;;;;109.97;26.02;;;5.60;99.90;;;;;;5040990;28;20041;-88
2022/01/13 07:02:02;;;;;;;116.38;26.73;;;5.60;99.90;;;;;;5039966;28;20112;-89
2022/01/13 07:04:28;;;;;;;113.18;25.60;;;6.40;99.90;;;;;;5024507;28;20034;-88
2022/01/13 07:06:54;;;;;;;122.95;27.83;;;5.60;99.90;;;;;;5029788;28;20045;-84
2022/01/13 07:09:21;;;;;;;112.88;23.95;;;5.60;99.90;;;;;;5027533;28;20084;-87
2022/01/13 07:11:47;;;;;;;98.15;25.08;;;5.50;99.90;;;;;;5024064;28;20041;-89
2022/01/13 07:14:13;;;;;;;131.82;27.90;;;5.60;99.90;;;;;;5027763;28;20041;-83
2022/01/13 07:16:40;;;;;;;122.68;29.23;;;5.70;99.90;;;;;;5029551;28;20049;-89
2022/01/13 07:19:09;;;;;;;130.00;27.02;;;5.50;99.90;;;;;;5032209;28;20042;-89
2022/01/13 07:21:35;;;;;;;123.47;26.10;;;5.60;99.90;;;;;;5020767;28;20042;-85
2022/01/13 07:24:01;;;;;;;115.30;26.65;;;5.50;99.90;;;;;;5008605;28;20029;-90
2022/01/13 07:26:26;;;;;;;139.73;28.60;;;5.60;99.90;;;;;;5023353;28;20163;-89
2022/01/13 07:28:52;;;;;;;130.02;26.27;;;5.50;99.90;;;;;;5000482;28;20054;-88
2022/01/13 07:31:17;;;;;;;87.65;23.48;;;5.50;99.90;;;;;;5020456;28;20065;-83
2022/01/13 07:33:43;;;;;;;94.80;24.92;;;5.20;99.90;;;;;;5021291;28;20061;-87
2022/01/13 07:36:10;;;;;;;101.80;24.75;;;5.60;99.90;;;;;;5040707;28;20045;-88
2022/01/13 07:38:35;;;;;;;114.05;25.20;;;5.50;99.90;;;;;;5022780;28;20041;-88
2022/01/13 07:41:01;;;;;;;103.00;25.17;;;5.60;99.90;;;;;;5020916;28;20044;-83
2022/01/13 07:43:27;;;;;;;80.70;26.13;;;5.60;99.90;;;;;;5027202;28;20104;-89
2022/01/13 07:45:53;;;;;;;86.47;25.90;;;5.60;99.90;;;;;;5037919;28;20781;-86
2022/01/13 07:48:20;;;;;;;98.65;24.33;;;5.40;99.90;;;;;;5020843;28;20054;-83
2022/01/13 07:50:47;;;;;;;99.35;25.50;;;5.50;99.90;;;;;;5020869;28;20395;-89
2022/01/13 07:53:13;;;;;;;112.03;25.63;;;5.40;99.90;;;;;;5019761;28;20537;-88
2022/01/13 07:55:39;;;;;;;89.25;22.85;;;5.60;99.90;;;;;;5028654;28;20045;-88
2022/01/13 07:58:04;;;;;;;110.40;26.38;;;5.60;99.90;;;;;;5020493;28;20638;-84
2022/01/13 08:00:30;;;;;;;89.70;23.25;;;5.50;99.90;;;;;;5036215;28;20064;-89
2022/01/13 08:02:56;;;;;;;98.68;25.45;;;5.60;99.90;;;;;;5004019;28;20473;-89
2022/01/13 08:05:21;;;;;;;81.40;23.65;;;5.40;99.90;;;;;;5009402;28;20041;-89
2022/01/13 08:07:47;;;;;;;88.82;24.23;;;5.60;99.90;;;;;;5022424;28;20049;-84
2022/01/13 08:10:13;;;;;;;105.97;25.42;;;5.60;99.90;;;;;;5024682;28;20052;-89
2022/01/13 08:12:40;;;;;;;72.45;21.80;;;5.50;99.90;;;;;;5023781;28;20103;-89
2022/01/13 08:15:13;;;;;;;55.17;19.80;;;5.50;99.90;;;;;;5027947;28;20120;-89
2022/01/13 08:20:28;;;;;;;84.28;21.80;;;5.60;99.90;;;;;;5019994;28;20085;-89
2022/01/13 08:22:53;;;;;;;79.30;22.80;;;5.60;99.90;;;;;;5027844;28;20050;-88
2022/01/13 08:25:20;;;;;;;82.28;23.48;;;5.60;99.90;;;;;;5019835;28;20049;-86
2022/01/13 08:27:45;;;;;;;101.22;25.85;;;5.50;99.90;;;;;;5035850;28;20046;-85
2022/01/13 08:30:12;;;;;;;70.35;22.33;;;5.60;99.90;;;;;;5019535;28;20129;-89
2022/01/13 08:32:37;;;;;;;78.03;23.50;;;5.60;99.90;;;;;;5027293;28;20225;-89
2022/01/13 08:35:04;;;;;;;75.35;23.55;;;5.50;99.90;;;;;;5019953;28;20049;-89
2022/01/13 08:37:30;;;;;;;71.63;22.73;;;5.70;99.90;;;;;;5047018;28;20060;-89
2022/01/13 08:39:56;;;;;;;67.78;23.83;;;5.60;99.90;;;;;;5038142;28;20052;-89
2022/01/13 08:42:22;;;;;;;79.22;24.77;;;5.70;99.90;;;;;;5018063;28;20057;-87
2022/01/13 08:44:49;;;;;;;58.63;21.10;;;5.70;99.90;;;;;;5020349;28;20045;-88
2022/01/13 08:47:14;;;;;;;80.55;24.13;;;5.80;99.90;;;;;;5023735;28;20046;-88
2022/01/13 08:49:41;;;;;;;65.53;22.23;;;5.70;99.90;;;;;;5038674;28;20124;-88
2022/01/13 08:52:07;;;;;;;74.47;22.95;;;5.70;99.90;;;;;;5019420;28;20045;-89
2022/01/13 08:54:33;;;;;;;65.68;22.33;;;5.60;99.90;;;;;;5026212;28;20107;-89
2022/01/13 08:57:00;;;;;;;57.03;20.40;;;5.60;99.90;;;;;;5018479;28;20052;-89
2022/01/13 08:59:26;;;;;;;61.35;21.73;;;5.80;99.90;;;;;;5018200;28;20045;-89
2022/01/13 09:01:53;;;;;;;73.65;23.88;;;5.80;99.90;;;;;;5027496;28;20509;-88
2022/01/13 09:04:18;;;;;;;70.43;22.63;;;5.80;99.90;;;;;;5039258;28;20041;-84
2022/01/13 09:06:44;;;;;;;74.32;25.00;;;6.60;99.90;;;;;;5039709;28;20080;-89
2022/01/13 09:09:09;;;;;;;69.20;23.73;;;5.70;99.90;;;;;;5018999;28;20045;-89
2022/01/13 09:11:35;;;;;;;65.40;21.40;;;5.50;99.90;;;;;;5017140;28;20068;-89
2022/01/13 09:14:01;;;;;;;64.47;21.45;;;5.80;99.90;;;;;;5021058;28;20041;-89
2022/01/13 09:16:29;;;;;;;80.97;26.30;;;5.80;99.90;;;;;;5019445;28;20501;-88
2022/01/13 09:21:21;;;;;;;69.35;25.13;;;5.90;99.90;;;;;;5022815;28;20102;-84
2022/01/13 09:23:47;;;;;;;61.15;22.63;;;5.90;99.90;;;;;;5014551;28;20482;-90
2022/01/13 09:26:13;;;;;;;75.93;26.52;;;5.90;99.90;;;;;;5013576;28;20055;-83
2022/01/13 09:28:39;;;;;;;73.30;26.92;;;5.90;99.90;;;;;;5022462;28;20094;-87
2022/01/13 09:31:05;;;;;;;81.80;26.98;;;5.90;99.90;;;;;;5020431;28;20107;-83
2022/01/13 09:33:31;;;;;;;75.05;26.98;;;5.90;99.90;;;;;;5035518;28;20030;-89
2022/01/13 09:35:57;;;;;;;81.55;27.60;;;5.90;99.90;;;;;;5027926;28;20056;-88
2022/01/13 09:38:23;;;;;;;70.10;26.20;;;5.80;99.90;;;;;;5021342;28;20438;-83
2022/01/13 09:40:52;;;;;;;74.18;26.95;;;5.90;99.90;;;;;;5038863;28;20053;-88
2022/01/13 09:43:23;;;;;;;70.53;26.67;;;5.90;99.90;;;;;;5021293;28;20124;-82
2022/01/13 09:45:50;;;;;;;70.80;26.50;;;5.90;99.90;;;;;;5013736;28;20050;-89
2022/01/13 09:48:15;;;;;;;64.78;23.15;;;5.90;99.90;;;;;;5022066;28;20041;-88
2022/01/13 09:50:43;;;;;;;74.55;26.65;;;5.90;99.90;;;;;;5015145;28;20072;-89
2022/01/13 09:53:09;;;;;;;65.22;24.00;;;5.90;99.90;;;;;;5044844;28;20080;-83
2022/01/13 09:55:35;;;;;;;70.22;26.95;;;5.90;99.90;;;;;;5015967;28;20081;-89
2022/01/13 09:58:05;;;;;;;66.68;25.27;;;5.90;99.90;;;;;;5020019;28;20084;-87
2022/01/13 10:00:31;;;;;;;71.70;28.20;;;5.90;99.90;;;;;;5021176;28;20052;-88
2022/01/13 10:02:56;;;;;;;79.70;26.88;;;5.90;99.90;;;;;;5021367;28;20033;-89
2022/01/13 10:05:23;;;;;;;55.75;20.30;;;5.90;99.90;;;;;;5021913;28;20041;-86
2022/01/13 10:07:50;;;;;;;68.78;25.70;;;6.00;99.90;;;;;;5021320;28;20065;-89
2022/01/13 10:10:19;;;;;;;59.45;26.23;;;5.90;99.90;;;;;;5028714;28;20057;-88
2022/01/13 10:12:47;;;;;;;63.28;23.67;;;7.00;99.90;;;;;;5029648;28;20493;-89
2022/01/13 10:18:05;;;;;;;67.20;25.80;;;6.00;99.90;;;;;;5032149;28;20053;-89
2022/01/13 10:20:32;;;;;;;54.08;23.52;;;6.00;99.90;;;;;;5041442;28;20037;-89
2022/01/13 10:23:07;;;;;;;73.20;25.25;;;5.90;99.90;;;;;;5024911;28;20044;-83
2022/01/13 10:25:38;;;;;;;57.65;26.30;;;6.00;99.90;;;;;;5017162;28;20378;-83
2022/01/13 10:28:22;;;;;;;65.63;25.38;;;5.90;99.90;;;;;;5027167;28;20091;-85
2022/01/13 10:30:50;;;;;;;61.78;26.13;;;6.00;99.90;;;;;;5033760;28;20128;-83
2022/01/13 10:33:23;;;;;;;71.38;27.77;;;5.90;99.90;;;;;;5024368;28;20056;-87
2022/01/13 10:35:50;;;;;;;69.50;28.38;;;6.00;99.90;;;;;;5050557;28;20059;-82
2022/01/13 10:38:17;;;;;;;61.10;23.88;;;5.90;99.90;;;;;;5022454;28;20559;-83
2022/01/13 10:40:47;;;;;;;72.03;27.35;;;6.00;99.90;;;;;;5027950;28;20047;-84
2022/01/13 10:43:15;;;;;;;71.97;28.42;;;5.90;99.90;;;;;;5022875;28;20033;-85
2022/01/13 10:45:48;;;;;;;76.03;28.85;;;5.90;99.90;;;;;;5019538;28;20080;-83
2022/01/13 10:48:19;;;;;;;75.85;28.67;;;6.00;99.90;;;;;;5022326;28;20091;-89
2022/01/13 10:51:06;;;;;;;78.18;31.00;;;5.80;99.90;;;;;;5028371;28;20049;-89
2022/01/13 10:53:36;;;;;;;73.82;30.27;;;6.00;99.90;;;;;;5026298;28;20045;-89
2022/01/13 10:56:07;;;;;;;66.97;29.13;;;6.00;99.90;;;;;;5019244;28;20041;-89
2022/01/13 10:58:38;;;;;;;76.65;31.05;;;6.00;99.90;;;;;;5018144;28;20049;-88
2022/01/13 11:01:05;;;;;;;68.50;30.58;;;6.10;99.90;;;;;;5023638;28;20045;-83
2022/01/13 11:03:34;;;;;;;66.65;28.08;;;6.10;99.90;;;;;;5017783;28;20490;-89
2022/01/13 11:06:06;;;;;;;79.50;30.30;;;6.10;99.90;;;;;;5024486;28;20036;-88
2022/01/13 11:08:42;;;;;;;68.68;26.88;;;6.00;99.90;;;;;;5000392;28;20075;-88
2022/01/13 11:11:17;;;;;;;48.92;23.38;;;6.00;99.90;;;;;;5024002;28;20433;-88
2022/01/13 11:13:59;;;;;;;60.45;26.08;;;6.10;99.90;;;;;;5011315;28;20038;-88
2022/01/13 11:16:26;;;;;;;63.03;29.00;;;6.20;99.90;;;;;;5019757;28;20514;-83
2022/01/13 11:18:53;;;;;;;69.22;27.92;;;6.10;99.90;;;;;;5020416;28;20053;-86
2022/01/13 11:21:19;;;;;;;41.72;21.90;;;6.20;99.90;;;;;;5022075;28;20041;-82
2022/01/13 11:23:48;;;;;;;64.57;27.52;;;6.20;99.90;;;;;;5037319;28;20068;-89
2022/01/13 11:26:16;;;;;;;52.97;25.00;;;6.20;99.90;;;;;;5030540;28;20133;-89
2022/01/13 11:28:42;;;;;;;55.97;24.42;;;6.20;99.90;;;;;;5027223;28;20050;-89
2022/01/13 11:31:09;;;;;;;60.45;26.38;;;6.20;99.90;;;;;;5004394;28;20058;-82
2022/01/13 11:33:36;;;;;;;56.55;25.73;;;6.30;99.90;;;;;;5024376;28;20045;-88
2022/01/13 11:36:03;;;;;;;45.83;20.73;;;6.20;99.90;;;;;;5023871;28;20045;-87
2022/01/13 11:38:30;;;;;;;54.28;25.63;;;6.20;99.90;;;;;;5016963;28;20425;-89
2022/01/13 11:41:04;;;;;;;42.42;21.98;;;6.20;99.90;;;;;;5018527;28;20046;-88
2022/01/13 11:43:38;;;;;;;56.90;24.45;;;6.30;99.90;;;;;;5020212;28;20041;-89
2022/01/13 11:46:14;;;;;;;45.45;20.15;;;6.30;99.90;;;;;;5028575;28;20048;-89
2022/01/13 11:48:57;;;;;;;54.83;22.05;;;6.20;99.90;;;;;;5012758;28;20049;-88
2022/01/13 11:51:23;;;;;;;61.63;25.95;;;6.30;99.90;;;;;;5028856;28;20611;-89
2022/01/13 11:54:06;;;;;;;53.28;24.38;;;6.30;99.90;;;;;;5027476;28;20136;-89
2022/01/13 11:56:32;;;;;;;54.53;26.60;;;6.20;99.90;;;;;;5007521;28;20446;-84
2022/01/13 11:58:58;;;;;;;50.53;24.08;;;6.20;99.90;;;;;;5024666;28;20044;-89
2022/01/13 12:01:32;;;;;;;51.50;26.20;;;6.30;99.90;;;;;;5019791;28;20501;-83
2022/01/13 12:04:04;;;;;;;62.72;26.83;;;6.30;99.90;;;;;;5027376;28;20049;-82
2022/01/13 12:06:40;;;;;;;53.17;25.70;;;6.30;99.90;;;;;;5021580;28;20088;-89
2022/01/13 12:09:32;;;;;;;54.55;21.48;;;6.30;99.90;;;;;;5014829;28;20048;-89
2022/01/13 12:11:57;;;;;;;53.75;25.55;;;6.30;99.90;;;;;;5029260;28;20139;-88
2022/01/13 12:14:27;;;;;;;57.67;27.23;;;6.40;99.90;;;;;;5038326;28;20046;-86
2022/01/13 12:17:00;;;;;;;56.15;27.50;;;6.40;99.90;;;;;;5026476;28;20068;-88
2022/01/13 12:19:31;;;;;;;55.58;26.92;;;6.40;99.90;;;;;;5020360;28;20038;-85
2022/01/13 12:22:03;;;;;;;47.75;23.02;;;6.30;99.90;;;;;;5026299;28;20037;-88
2022/01/13 12:25:02;;;;;;;44.83;21.70;;;6.40;99.90;;;;;;5023384;28;20049;-88
2022/01/13 12:27:34;;;;;;;39.22;18.60;;;6.50;99.90;;;;;;4979179;28;20140;-84
2022/01/13 12:30:03;;;;;;;36.78;20.48;;;6.60;99.90;;;;;;5039701;28;20064;-82
2022/01/13 12:32:39;;;;;;;46.83;24.23;;;6.60;99.90;;;;;;5027428;28;20497;-88
2022/01/13 12:35:08;;;;;;;41.50;22.13;;;6.60;99.90;;;;;;5023477;28;20042;-82
2022/01/13 12:37:38;;;;;;;44.15;23.85;;;6.70;99.90;;;;;;5020116;28;20125;-89
2022/01/13 12:40:09;;;;;;;40.92;22.48;;;6.70;99.90;;;;;;5026282;28;20405;-85
2022/01/13 12:42:38;;;;;;;43.40;23.58;;;6.70;99.90;;;;;;5022332;28;20050;-87
2022/01/13 12:47:52;;;;;;;44.00;23.20;;;6.70;99.90;;;;;;5020483;28;20052;-89
2022/01/13 12:50:22;;;;;;;44.45;23.50;;;6.70;99.90;;;;;;5036339;28;20041;-83
2022/01/13 12:52:49;;;;;;;38.97;20.70;;;6.40;99.90;;;;;;5022785;28;20041;-84
2022/01/13 12:55:16;;;;;;;47.10;22.85;;;6.70;99.90;;;;;;5013871;28;20042;-84
2022/01/13 12:57:48;;;;;;;39.83;21.77;;;6.90;99.90;;;;;;5022707;28;20103;-87
2022/01/13 13:00:16;;;;;;;38.22;20.60;;;7.00;99.90;;;;;;5021972;28;20044;-85
2022/01/13 13:03:05;;;;;;;33.35;18.45;;;7.00;99.90;;;;;;5023177;28;20092;-82